sensor_id;sensor_type;location;lat;lon;timestamp;P1;durP1;ratioP1;P2;durP2;ratioP2
48651;SDS011;34442;52.362;-1.302;2023-07-31T00:01:52;2.83;;;1.30;;
48651;SDS011;34442;52.362;-1.302;2023-07-31T00:04:17;2.30;;;1.27;;
48651;SDS011;34442;52.362;-1.302;2023-07-31T00:06:43;1.50;;;0.90;;
48651;SDS011;34442;52.362;-1.302;2023-07-31T00:09:08;2.53;;;1.20;;
48651;SDS011;34442;52.362;-1.302;2023-07-31T00:11:34;2.83;;;1.38;;
48651;SDS011;34442;52.362;-1.302;2023-07-31T00:13:59;2.53;;;1.30;;
48651;SDS011;34442;52.362;-1.302;2023-07-31T00:16:24;2.60;;;1.10;;
48651;SDS011;34442;52.362;-1.302;2023-07-31T00:18:50;1.90;;;1.00;;
48651;SDS011;34442;52.362;-1.302;2023-07-31T00:21:16;1.85;;;1.10;;
48651;SDS011;34442;52.362;-1.302;2023-07-31T00:23:41;2.95;;;1.10;;
48651;SDS011;34442;52.362;-1.302;2023-07-31T00:26:06;2.08;;;1.20;;
48651;SDS011;34442;52.362;-1.302;2023-07-31T00:28:32;2.88;;;1.23;;
48651;SDS011;34442;52.362;-1.302;2023-07-31T00:30:57;2.42;;;1.00;;
48651;SDS011;34442;52.362;-1.302;2023-07-31T00:33:22;1.40;;;0.90;;
48651;SDS011;34442;52.362;-1.302;2023-07-31T00:35:48;1.55;;;0.85;;
48651;SDS011;34442;52.362;-1.302;2023-07-31T00:38:14;2.20;;;1.08;;
48651;SDS011;34442;52.362;-1.302;2023-07-31T00:40:39;1.83;;;0.98;;
48651;SDS011;34442;52.362;-1.302;2023-07-31T00:43:05;2.20;;;1.15;;
48651;SDS011;34442;52.362;-1.302;2023-07-31T00:45:30;3.20;;;1.17;;
48651;SDS011;34442;52.362;-1.302;2023-07-31T00:47:57;2.13;;;0.90;;
48651;SDS011;34442;52.362;-1.302;2023-07-31T00:50:24;2.45;;;1.13;;
48651;SDS011;34442;52.362;-1.302;2023-07-31T00:52:50;1.98;;;0.98;;
48651;SDS011;34442;52.362;-1.302;2023-07-31T00:55:15;2.40;;;1.17;;
48651;SDS011;34442;52.362;-1.302;2023-07-31T00:57:44;1.92;;;0.95;;
48651;SDS011;34442;52.362;-1.302;2023-07-31T01:00:10;1.80;;;0.80;;
48651;SDS011;34442;52.362;-1.302;2023-07-31T01:02:36;1.73;;;0.80;;
48651;SDS011;34442;52.362;-1.302;2023-07-31T01:05:02;1.65;;;0.90;;
48651;SDS011;34442;52.362;-1.302;2023-07-31T01:10:44;1.30;;;0.63;;
48651;SDS011;34442;52.362;-1.302;2023-07-31T01:13:03;1.40;;;0.80;;
48651;SDS011;34442;52.362;-1.302;2023-07-31T01:15:31;0.82;;;0.68;;
48651;SDS011;34442;52.362;-1.302;2023-07-31T01:17:56;1.85;;;1.05;;
48651;SDS011;34442;52.362;-1.302;2023-07-31T01:20:22;1.38;;;0.80;;
48651;SDS011;34442;52.362;-1.302;2023-07-31T01:25:48;1.85;;;0.80;;
48651;SDS011;34442;52.362;-1.302;2023-07-31T01:31:29;0.95;;;0.75;;
48651;SDS011;34442;52.362;-1.302;2023-07-31T01:33:56;1.17;;;0.80;;
48651;SDS011;34442;52.362;-1.302;2023-07-31T01:36:24;1.13;;;0.70;;
48651;SDS011;34442;52.362;-1.302;2023-07-31T01:38:51;0.95;;;0.70;;
48651;SDS011;34442;52.362;-1.302;2023-07-31T01:41:17;0.93;;;0.70;;
48651;SDS011;34442;52.362;-1.302;2023-07-31T01:43:43;0.95;;;0.70;;
48651;SDS011;34442;52.362;-1.302;2023-07-31T01:46:09;0.98;;;0.60;;
48651;SDS011;34442;52.362;-1.302;2023-07-31T01:48:34;1.35;;;0.70;;
48651;SDS011;34442;52.362;-1.302;2023-07-31T01:51:02;0.95;;;0.60;;
48651;SDS011;34442;52.362;-1.302;2023-07-31T01:53:28;1.30;;;0.70;;
48651;SDS011;34442;52.362;-1.302;2023-07-31T01:55:54;0.68;;;0.60;;
48651;SDS011;34442;52.362;-1.302;2023-07-31T01:58:19;0.40;;;0.40;;
48651;SDS011;34442;52.362;-1.302;2023-07-31T02:00:45;1.08;;;0.60;;
48651;SDS011;34442;52.362;-1.302;2023-07-31T02:03:11;0.43;;;0.43;;
48651;SDS011;34442;52.362;-1.302;2023-07-31T02:05:36;1.25;;;0.70;;
48651;SDS011;34442;52.362;-1.302;2023-07-31T02:08:09;0.50;;;0.40;;
48651;SDS011;34442;52.362;-1.302;2023-07-31T02:10:34;0.40;;;0.40;;
48651;SDS011;34442;52.362;-1.302;2023-07-31T02:13:00;1.38;;;0.60;;
48651;SDS011;34442;52.362;-1.302;2023-07-31T02:15:25;0.75;;;0.50;;
48651;SDS011;34442;52.362;-1.302;2023-07-31T02:17:50;1.15;;;0.57;;
48651;SDS011;34442;52.362;-1.302;2023-07-31T02:20:16;0.95;;;0.65;;
48651;SDS011;34442;52.362;-1.302;2023-07-31T02:22:41;0.68;;;0.50;;
48651;SDS011;34442;52.362;-1.302;2023-07-31T02:25:07;0.55;;;0.45;;
48651;SDS011;34442;52.362;-1.302;2023-07-31T02:27:32;1.58;;;0.60;;
48651;SDS011;34442;52.362;-1.302;2023-07-31T02:29:58;0.40;;;0.40;;
48651;SDS011;34442;52.362;-1.302;2023-07-31T02:32:24;0.40;;;0.40;;
48651;SDS011;34442;52.362;-1.302;2023-07-31T02:34:49;0.40;;;0.40;;
48651;SDS011;34442;52.362;-1.302;2023-07-31T02:37:15;0.40;;;0.40;;
48651;SDS011;34442;52.362;-1.302;2023-07-31T02:39:40;0.25;;;0.25;;
48651;SDS011;34442;52.362;-1.302;2023-07-31T02:42:06;0.55;;;0.50;;
48651;SDS011;34442;52.362;-1.302;2023-07-31T02:44:31;0.30;;;0.30;;
48651;SDS011;34442;52.362;-1.302;2023-07-31T02:46:56;0.20;;;0.20;;
48651;SDS011;34442;52.362;-1.302;2023-07-31T02:49:22;0.75;;;0.55;;
48651;SDS011;34442;52.362;-1.302;2023-07-31T02:51:47;0.30;;;0.30;;
48651;SDS011;34442;52.362;-1.302;2023-07-31T02:54:13;0.20;;;0.20;;
48651;SDS011;34442;52.362;-1.302;2023-07-31T02:56:38;0.35;;;0.30;;
48651;SDS011;34442;52.362;-1.302;2023-07-31T02:59:03;0.30;;;0.30;;
48651;SDS011;34442;52.362;-1.302;2023-07-31T03:01:29;0.40;;;0.40;;
48651;SDS011;34442;52.362;-1.302;2023-07-31T03:03:54;0.30;;;0.30;;
48651;SDS011;34442;52.362;-1.302;2023-07-31T03:06:19;0.20;;;0.20;;
48651;SDS011;34442;52.362;-1.302;2023-07-31T03:08:45;0.30;;;0.30;;
48651;SDS011;34442;52.362;-1.302;2023-07-31T03:11:10;0.40;;;0.40;;
48651;SDS011;34442;52.362;-1.302;2023-07-31T03:13:36;0.30;;;0.30;;
48651;SDS011;34442;52.362;-1.302;2023-07-31T03:16:01;0.38;;;0.38;;
48651;SDS011;34442;52.362;-1.302;2023-07-31T03:18:27;0.30;;;0.30;;
48651;SDS011;34442;52.362;-1.302;2023-07-31T03:20:52;0.40;;;0.40;;
48651;SDS011;34442;52.362;-1.302;2023-07-31T03:23:17;0.30;;;0.30;;
48651;SDS011;34442;52.362;-1.302;2023-07-31T03:26:06;0.30;;;0.30;;
48651;SDS011;34442;52.362;-1.302;2023-07-31T03:28:32;0.30;;;0.30;;
48651;SDS011;34442;52.362;-1.302;2023-07-31T03:30:57;0.20;;;0.20;;
48651;SDS011;34442;52.362;-1.302;2023-07-31T03:33:23;0.30;;;0.30;;
48651;SDS011;34442;52.362;-1.302;2023-07-31T03:35:48;0.30;;;0.30;;
48651;SDS011;34442;52.362;-1.302;2023-07-31T03:38:14;0.20;;;0.20;;
48651;SDS011;34442;52.362;-1.302;2023-07-31T03:40:39;0.30;;;0.30;;
48651;SDS011;34442;52.362;-1.302;2023-07-31T03:43:05;0.30;;;0.30;;
48651;SDS011;34442;52.362;-1.302;2023-07-31T03:45:30;0.30;;;0.30;;
48651;SDS011;34442;52.362;-1.302;2023-07-31T03:47:56;0.30;;;0.30;;
48651;SDS011;34442;52.362;-1.302;2023-07-31T03:50:21;0.30;;;0.30;;
48651;SDS011;34442;52.362;-1.302;2023-07-31T03:52:47;0.30;;;0.30;;
48651;SDS011;34442;52.362;-1.302;2023-07-31T03:55:12;0.30;;;0.30;;
48651;SDS011;34442;52.362;-1.302;2023-07-31T03:57:37;0.40;;;0.40;;
48651;SDS011;34442;52.362;-1.302;2023-07-31T04:00:03;0.40;;;0.40;;
48651;SDS011;34442;52.362;-1.302;2023-07-31T04:02:29;0.35;;;0.35;;
48651;SDS011;34442;52.362;-1.302;2023-07-31T04:04:54;0.38;;;0.38;;
48651;SDS011;34442;52.362;-1.302;2023-07-31T04:07:19;0.30;;;0.30;;
48651;SDS011;34442;52.362;-1.302;2023-07-31T04:09:45;0.40;;;0.40;;
48651;SDS011;34442;52.362;-1.302;2023-07-31T04:12:10;0.50;;;0.50;;
48651;SDS011;34442;52.362;-1.302;2023-07-31T04:14:36;0.82;;;0.40;;
48651;SDS011;34442;52.362;-1.302;2023-07-31T04:17:02;0.73;;;0.47;;
48651;SDS011;34442;52.362;-1.302;2023-07-31T04:19:27;0.45;;;0.43;;
48651;SDS011;34442;52.362;-1.302;2023-07-31T04:21:52;0.43;;;0.40;;
48651;SDS011;34442;52.362;-1.302;2023-07-31T04:24:18;0.43;;;0.43;;
48651;SDS011;34442;52.362;-1.302;2023-07-31T04:26:49;0.63;;;0.50;;
48651;SDS011;34442;52.362;-1.302;2023-07-31T04:29:15;3.08;;;0.63;;
48651;SDS011;34442;52.362;-1.302;2023-07-31T04:31:41;0.40;;;0.40;;
48651;SDS011;34442;52.362;-1.302;2023-07-31T04:34:06;1.33;;;0.50;;
48651;SDS011;34442;52.362;-1.302;2023-07-31T04:36:33;1.05;;;0.70;;
48651;SDS011;34442;52.362;-1.302;2023-07-31T04:38:59;0.43;;;0.40;;
48651;SDS011;34442;52.362;-1.302;2023-07-31T04:41:25;0.77;;;0.63;;
48651;SDS011;34442;52.362;-1.302;2023-07-31T04:43:51;0.93;;;0.63;;
48651;SDS011;34442;52.362;-1.302;2023-07-31T04:46:16;1.20;;;0.63;;
48651;SDS011;34442;52.362;-1.302;2023-07-31T04:48:42;0.63;;;0.63;;
48651;SDS011;34442;52.362;-1.302;2023-07-31T04:51:08;1.02;;;0.57;;
48651;SDS011;34442;52.362;-1.302;2023-07-31T04:53:34;1.00;;;0.80;;
48651;SDS011;34442;52.362;-1.302;2023-07-31T04:56:00;0.70;;;0.70;;
48651;SDS011;34442;52.362;-1.302;2023-07-31T04:58:25;0.82;;;0.82;;
48651;SDS011;34442;52.362;-1.302;2023-07-31T05:00:51;1.35;;;0.85;;
48651;SDS011;34442;52.362;-1.302;2023-07-31T05:03:16;1.67;;;0.80;;
48651;SDS011;34442;52.362;-1.302;2023-07-31T05:05:42;1.02;;;0.65;;
48651;SDS011;34442;52.362;-1.302;2023-07-31T05:08:07;1.38;;;0.65;;
48651;SDS011;34442;52.362;-1.302;2023-07-31T05:10:33;0.50;;;0.50;;
48651;SDS011;34442;52.362;-1.302;2023-07-31T05:12:58;0.65;;;0.60;;
48651;SDS011;34442;52.362;-1.302;2023-07-31T05:15:24;1.67;;;0.80;;
48651;SDS011;34442;52.362;-1.302;2023-07-31T05:17:49;1.90;;;0.80;;
48651;SDS011;34442;52.362;-1.302;2023-07-31T05:20:15;0.85;;;0.75;;
48651;SDS011;34442;52.362;-1.302;2023-07-31T05:22:40;0.88;;;0.52;;
48651;SDS011;34442;52.362;-1.302;2023-07-31T05:25:06;0.63;;;0.52;;
48651;SDS011;34442;52.362;-1.302;2023-07-31T05:27:32;1.45;;;0.70;;
48651;SDS011;34442;52.362;-1.302;2023-07-31T05:29:57;1.05;;;0.60;;
48651;SDS011;34442;52.362;-1.302;2023-07-31T05:32:23;2.08;;;0.90;;
48651;SDS011;34442;52.362;-1.302;2023-07-31T05:34:50;1.83;;;0.90;;
48651;SDS011;34442;52.362;-1.302;2023-07-31T05:37:17;1.55;;;0.90;;
48651;SDS011;34442;52.362;-1.302;2023-07-31T05:39:42;1.75;;;0.88;;
48651;SDS011;34442;52.362;-1.302;2023-07-31T05:42:08;0.88;;;0.80;;
48651;SDS011;34442;52.362;-1.302;2023-07-31T05:44:33;1.08;;;0.70;;
48651;SDS011;34442;52.362;-1.302;2023-07-31T05:46:59;0.80;;;0.60;;
48651;SDS011;34442;52.362;-1.302;2023-07-31T05:49:24;0.60;;;0.60;;
48651;SDS011;34442;52.362;-1.302;2023-07-31T05:51:49;2.65;;;1.00;;
48651;SDS011;34442;52.362;-1.302;2023-07-31T05:54:15;2.13;;;1.10;;
48651;SDS011;34442;52.362;-1.302;2023-07-31T05:56:40;1.95;;;1.08;;
48651;SDS011;34442;52.362;-1.302;2023-07-31T05:59:06;1.48;;;0.80;;
48651;SDS011;34442;52.362;-1.302;2023-07-31T06:01:31;1.45;;;0.80;;
48651;SDS011;34442;52.362;-1.302;2023-07-31T06:03:57;1.25;;;0.70;;
48651;SDS011;34442;52.362;-1.302;2023-07-31T06:06:22;2.42;;;1.10;;
48651;SDS011;34442;52.362;-1.302;2023-07-31T06:08:48;2.72;;;1.23;;
48651;SDS011;34442;52.362;-1.302;2023-07-31T06:11:14;1.95;;;0.90;;
48651;SDS011;34442;52.362;-1.302;2023-07-31T06:13:40;1.00;;;0.73;;
48651;SDS011;34442;52.362;-1.302;2023-07-31T06:16:07;1.80;;;0.90;;
48651;SDS011;34442;52.362;-1.302;2023-07-31T06:18:33;0.77;;;0.70;;
48651;SDS011;34442;52.362;-1.302;2023-07-31T06:20:58;1.73;;;0.90;;
48651;SDS011;34442;52.362;-1.302;2023-07-31T06:23:24;1.20;;;0.80;;
48651;SDS011;34442;52.362;-1.302;2023-07-31T06:25:49;1.35;;;0.80;;
48651;SDS011;34442;52.362;-1.302;2023-07-31T06:28:14;1.35;;;0.98;;
48651;SDS011;34442;52.362;-1.302;2023-07-31T06:30:40;1.50;;;1.05;;
48651;SDS011;34442;52.362;-1.302;2023-07-31T06:33:05;1.42;;;0.88;;
48651;SDS011;34442;52.362;-1.302;2023-07-31T06:35:31;2.50;;;1.10;;
48651;SDS011;34442;52.362;-1.302;2023-07-31T06:37:56;1.73;;;0.93;;
48651;SDS011;34442;52.362;-1.302;2023-07-31T06:40:21;2.33;;;1.10;;
48651;SDS011;34442;52.362;-1.302;2023-07-31T06:42:47;1.48;;;0.90;;
48651;SDS011;34442;52.362;-1.302;2023-07-31T06:45:13;1.55;;;0.90;;
48651;SDS011;34442;52.362;-1.302;2023-07-31T06:47:38;1.55;;;0.90;;
48651;SDS011;34442;52.362;-1.302;2023-07-31T06:50:04;2.30;;;1.10;;
48651;SDS011;34442;52.362;-1.302;2023-07-31T06:52:30;1.52;;;0.80;;
48651;SDS011;34442;52.362;-1.302;2023-07-31T06:55:00;1.83;;;0.90;;
48651;SDS011;34442;52.362;-1.302;2023-07-31T06:57:27;1.63;;;0.80;;
48651;SDS011;34442;52.362;-1.302;2023-07-31T06:59:53;1.08;;;0.82;;
48651;SDS011;34442;52.362;-1.302;2023-07-31T07:02:18;1.83;;;0.90;;
48651;SDS011;34442;52.362;-1.302;2023-07-31T07:04:43;2.00;;;1.00;;
48651;SDS011;34442;52.362;-1.302;2023-07-31T07:07:09;1.23;;;0.80;;
48651;SDS011;34442;52.362;-1.302;2023-07-31T07:09:34;1.40;;;0.80;;
48651;SDS011;34442;52.362;-1.302;2023-07-31T07:12:00;1.45;;;0.82;;
48651;SDS011;34442;52.362;-1.302;2023-07-31T07:14:26;1.20;;;0.70;;
48651;SDS011;34442;52.362;-1.302;2023-07-31T07:16:51;1.80;;;0.90;;
48651;SDS011;34442;52.362;-1.302;2023-07-31T07:19:17;1.70;;;0.77;;
48651;SDS011;34442;52.362;-1.302;2023-07-31T07:21:42;1.50;;;0.80;;
48651;SDS011;34442;52.362;-1.302;2023-07-31T07:24:07;1.40;;;0.82;;
48651;SDS011;34442;52.362;-1.302;2023-07-31T07:26:36;2.10;;;0.80;;
48651;SDS011;34442;52.362;-1.302;2023-07-31T07:29:01;1.70;;;0.70;;
48651;SDS011;34442;52.362;-1.302;2023-07-31T07:31:27;1.48;;;0.80;;
48651;SDS011;34442;52.362;-1.302;2023-07-31T07:33:53;1.83;;;1.02;;
48651;SDS011;34442;52.362;-1.302;2023-07-31T07:36:19;1.65;;;1.02;;
48651;SDS011;34442;52.362;-1.302;2023-07-31T07:38:44;1.33;;;1.00;;
48651;SDS011;34442;52.362;-1.302;2023-07-31T07:41:10;2.05;;;1.00;;
48651;SDS011;34442;52.362;-1.302;2023-07-31T07:43:35;1.83;;;1.00;;
48651;SDS011;34442;52.362;-1.302;2023-07-31T07:46:00;2.50;;;1.20;;
48651;SDS011;34442;52.362;-1.302;2023-07-31T07:48:26;2.47;;;1.08;;
48651;SDS011;34442;52.362;-1.302;2023-07-31T07:50:51;2.47;;;1.20;;
48651;SDS011;34442;52.362;-1.302;2023-07-31T07:53:17;2.05;;;1.08;;
48651;SDS011;34442;52.362;-1.302;2023-07-31T07:55:42;1.95;;;1.10;;
48651;SDS011;34442;52.362;-1.302;2023-07-31T07:58:07;2.05;;;1.02;;
48651;SDS011;34442;52.362;-1.302;2023-07-31T08:00:33;1.75;;;0.95;;
48651;SDS011;34442;52.362;-1.302;2023-07-31T08:02:58;1.77;;;1.05;;
48651;SDS011;34442;52.362;-1.302;2023-07-31T08:05:24;2.22;;;1.17;;
48651;SDS011;34442;52.362;-1.302;2023-07-31T08:07:49;2.45;;;1.08;;
48651;SDS011;34442;52.362;-1.302;2023-07-31T08:10:15;2.35;;;1.10;;
48651;SDS011;34442;52.362;-1.302;2023-07-31T08:12:40;2.42;;;1.10;;
48651;SDS011;34442;52.362;-1.302;2023-07-31T08:15:06;1.92;;;0.95;;
48651;SDS011;34442;52.362;-1.302;2023-07-31T08:17:31;3.78;;;1.30;;
48651;SDS011;34442;52.362;-1.302;2023-07-31T08:19:57;2.22;;;1.27;;
48651;SDS011;34442;52.362;-1.302;2023-07-31T08:22:23;1.65;;;1.00;;
48651;SDS011;34442;52.362;-1.302;2023-07-31T08:24:49;1.75;;;1.05;;
48651;SDS011;34442;52.362;-1.302;2023-07-31T08:27:14;2.10;;;1.02;;
48651;SDS011;34442;52.362;-1.302;2023-07-31T08:29:39;1.75;;;0.98;;
48651;SDS011;34442;52.362;-1.302;2023-07-31T08:32:05;2.03;;;1.02;;
48651;SDS011;34442;52.362;-1.302;2023-07-31T08:34:31;1.95;;;1.10;;
48651;SDS011;34442;52.362;-1.302;2023-07-31T08:36:56;1.58;;;0.95;;
48651;SDS011;34442;52.362;-1.302;2023-07-31T08:39:21;2.15;;;0.98;;
48651;SDS011;34442;52.362;-1.302;2023-07-31T08:41:47;1.20;;;0.70;;
48651;SDS011;34442;52.362;-1.302;2023-07-31T08:44:15;1.70;;;0.80;;
48651;SDS011;34442;52.362;-1.302;2023-07-31T08:46:42;1.15;;;0.85;;
48651;SDS011;34442;52.362;-1.302;2023-07-31T08:49:08;1.45;;;0.98;;
48651;SDS011;34442;52.362;-1.302;2023-07-31T08:51:35;1.55;;;0.90;;
48651;SDS011;34442;52.362;-1.302;2023-07-31T08:54:01;1.40;;;0.68;;
48651;SDS011;34442;52.362;-1.302;2023-07-31T08:56:29;2.35;;;1.17;;
48651;SDS011;34442;52.362;-1.302;2023-07-31T09:01:33;3.20;;;1.27;;
48651;SDS011;34442;52.362;-1.302;2023-07-31T09:04:06;3.38;;;1.27;;
48651;SDS011;34442;52.362;-1.302;2023-07-31T09:06:34;2.05;;;1.02;;
48651;SDS011;34442;52.362;-1.302;2023-07-31T09:09:00;2.53;;;1.00;;
48651;SDS011;34442;52.362;-1.302;2023-07-31T09:11:25;2.25;;;1.00;;
48651;SDS011;34442;52.362;-1.302;2023-07-31T09:13:52;2.53;;;1.10;;
48651;SDS011;34442;52.362;-1.302;2023-07-31T09:16:18;3.22;;;1.08;;
48651;SDS011;34442;52.362;-1.302;2023-07-31T09:18:56;2.53;;;1.30;;
48651;SDS011;34442;52.362;-1.302;2023-07-31T09:21:22;2.05;;;1.02;;
48651;SDS011;34442;52.362;-1.302;2023-07-31T09:23:49;2.78;;;1.10;;
48651;SDS011;34442;52.362;-1.302;2023-07-31T09:26:36;1.95;;;1.10;;
48651;SDS011;34442;52.362;-1.302;2023-07-31T09:29:05;2.58;;;1.13;;
48651;SDS011;34442;52.362;-1.302;2023-07-31T09:31:42;3.63;;;1.40;;
48651;SDS011;34442;52.362;-1.302;2023-07-31T09:34:08;2.78;;;1.30;;
48651;SDS011;34442;52.362;-1.302;2023-07-31T09:36:41;2.65;;;1.23;;
48651;SDS011;34442;52.362;-1.302;2023-07-31T09:41:40;2.22;;;1.17;;
48651;SDS011;34442;52.362;-1.302;2023-07-31T09:44:09;2.47;;;1.30;;
48651;SDS011;34442;52.362;-1.302;2023-07-31T09:46:35;3.80;;;1.70;;
48651;SDS011;34442;52.362;-1.302;2023-07-31T09:51:34;2.72;;;1.27;;
48651;SDS011;34442;52.362;-1.302;2023-07-31T09:54:03;3.78;;;1.40;;
48651;SDS011;34442;52.362;-1.302;2023-07-31T09:56:43;2.83;;;1.33;;
48651;SDS011;34442;52.362;-1.302;2023-07-31T09:59:13;3.03;;;1.15;;
48651;SDS011;34442;52.362;-1.302;2023-07-31T10:01:43;2.25;;;1.23;;
48651;SDS011;34442;52.362;-1.302;2023-07-31T10:04:11;2.80;;;1.38;;
48651;SDS011;34442;52.362;-1.302;2023-07-31T10:06:38;3.08;;;1.38;;
48651;SDS011;34442;52.362;-1.302;2023-07-31T10:09:05;2.72;;;1.27;;
48651;SDS011;34442;52.362;-1.302;2023-07-31T10:11:34;2.78;;;1.20;;
48651;SDS011;34442;52.362;-1.302;2023-07-31T10:14:09;1.75;;;1.05;;
48651;SDS011;34442;52.362;-1.302;2023-07-31T10:16:37;2.50;;;1.33;;
48651;SDS011;34442;52.362;-1.302;2023-07-31T10:19:03;2.45;;;1.20;;
48651;SDS011;34442;52.362;-1.302;2023-07-31T10:21:29;2.45;;;1.05;;
48651;SDS011;34442;52.362;-1.302;2023-07-31T10:23:56;2.65;;;1.35;;
48651;SDS011;34442;52.362;-1.302;2023-07-31T10:26:22;2.47;;;1.10;;
48651;SDS011;34442;52.362;-1.302;2023-07-31T10:28:48;2.22;;;1.30;;
48651;SDS011;34442;52.362;-1.302;2023-07-31T10:31:16;1.98;;;1.00;;
48651;SDS011;34442;52.362;-1.302;2023-07-31T10:33:43;3.13;;;1.42;;
48651;SDS011;34442;52.362;-1.302;2023-07-31T10:36:12;3.70;;;1.40;;
48651;SDS011;34442;52.362;-1.302;2023-07-31T10:38:49;4.10;;;1.77;;
48651;SDS011;34442;52.362;-1.302;2023-07-31T10:41:18;3.60;;;1.60;;
48651;SDS011;34442;52.362;-1.302;2023-07-31T10:43:45;4.30;;;1.77;;
48651;SDS011;34442;52.362;-1.302;2023-07-31T10:46:12;3.00;;;1.38;;
48651;SDS011;34442;52.362;-1.302;2023-07-31T10:48:39;3.67;;;1.80;;
48651;SDS011;34442;52.362;-1.302;2023-07-31T10:51:10;3.10;;;1.42;;
48651;SDS011;34442;52.362;-1.302;2023-07-31T10:53:41;4.38;;;1.58;;
48651;SDS011;34442;52.362;-1.302;2023-07-31T10:56:08;3.90;;;1.42;;
48651;SDS011;34442;52.362;-1.302;2023-07-31T10:58:37;4.10;;;1.92;;
48651;SDS011;34442;52.362;-1.302;2023-07-31T11:01:04;5.15;;;2.15;;
48651;SDS011;34442;52.362;-1.302;2023-07-31T11:03:46;4.05;;;1.65;;
48651;SDS011;34442;52.362;-1.302;2023-07-31T11:06:14;4.97;;;1.90;;
48651;SDS011;34442;52.362;-1.302;2023-07-31T11:08:41;2.95;;;1.30;;
48651;SDS011;34442;52.362;-1.302;2023-07-31T11:11:12;3.58;;;1.45;;
48651;SDS011;34442;52.362;-1.302;2023-07-31T11:13:51;3.05;;;1.60;;
48651;SDS011;34442;52.362;-1.302;2023-07-31T11:16:19;3.92;;;1.70;;
48651;SDS011;34442;52.362;-1.302;2023-07-31T11:18:47;2.63;;;1.20;;
48651;SDS011;34442;52.362;-1.302;2023-07-31T11:21:14;2.67;;;1.38;;
48651;SDS011;34442;52.362;-1.302;2023-07-31T11:23:45;3.30;;;1.58;;
48651;SDS011;34442;52.362;-1.302;2023-07-31T11:26:11;3.28;;;1.85;;
48651;SDS011;34442;52.362;-1.302;2023-07-31T11:28:37;3.30;;;1.40;;
48651;SDS011;34442;52.362;-1.302;2023-07-31T11:31:03;2.60;;;1.20;;
48651;SDS011;34442;52.362;-1.302;2023-07-31T11:33:29;3.72;;;1.23;;
48651;SDS011;34442;52.362;-1.302;2023-07-31T11:35:56;4.93;;;1.60;;
48651;SDS011;34442;52.362;-1.302;2023-07-31T11:38:31;3.70;;;1.30;;
48651;SDS011;34442;52.362;-1.302;2023-07-31T11:40:58;2.33;;;1.30;;
48651;SDS011;34442;52.362;-1.302;2023-07-31T11:43:26;3.00;;;1.42;;
48651;SDS011;34442;52.362;-1.302;2023-07-31T11:45:52;3.97;;;1.60;;
48651;SDS011;34442;52.362;-1.302;2023-07-31T11:48:20;4.20;;;1.63;;
48651;SDS011;34442;52.362;-1.302;2023-07-31T11:50:49;3.10;;;1.25;;
48651;SDS011;34442;52.362;-1.302;2023-07-31T11:53:17;3.83;;;1.42;;
48651;SDS011;34442;52.362;-1.302;2023-07-31T11:55:47;2.25;;;1.10;;
48651;SDS011;34442;52.362;-1.302;2023-07-31T11:58:13;2.53;;;1.20;;
48651;SDS011;34442;52.362;-1.302;2023-07-31T12:00:41;3.97;;;1.65;;
48651;SDS011;34442;52.362;-1.302;2023-07-31T12:03:07;3.38;;;1.67;;
48651;SDS011;34442;52.362;-1.302;2023-07-31T12:05:33;3.55;;;1.23;;
48651;SDS011;34442;52.362;-1.302;2023-07-31T12:07:58;3.13;;;1.50;;
48651;SDS011;34442;52.362;-1.302;2023-07-31T12:13:02;2.20;;;1.25;;
48651;SDS011;34442;52.362;-1.302;2023-07-31T12:15:36;2.50;;;1.35;;
48651;SDS011;34442;52.362;-1.302;2023-07-31T12:18:04;3.15;;;1.40;;
48651;SDS011;34442;52.362;-1.302;2023-07-31T12:20:30;3.47;;;1.55;;
48651;SDS011;34442;52.362;-1.302;2023-07-31T12:22:57;3.35;;;1.35;;
48651;SDS011;34442;52.362;-1.302;2023-07-31T12:25:28;2.85;;;1.38;;
48651;SDS011;34442;52.362;-1.302;2023-07-31T12:27:54;2.85;;;1.40;;
48651;SDS011;34442;52.362;-1.302;2023-07-31T12:30:33;2.45;;;1.25;;
48651;SDS011;34442;52.362;-1.302;2023-07-31T12:33:13;2.58;;;1.33;;
48651;SDS011;34442;52.362;-1.302;2023-07-31T12:35:46;3.92;;;1.50;;
48651;SDS011;34442;52.362;-1.302;2023-07-31T12:38:12;2.28;;;1.23;;
48651;SDS011;34442;52.362;-1.302;2023-07-31T12:40:39;3.28;;;1.45;;
48651;SDS011;34442;52.362;-1.302;2023-07-31T12:43:06;4.93;;;1.58;;
48651;SDS011;34442;52.362;-1.302;2023-07-31T12:45:32;3.28;;;1.33;;
48651;SDS011;34442;52.362;-1.302;2023-07-31T12:47:58;2.05;;;1.10;;
48651;SDS011;34442;52.362;-1.302;2023-07-31T12:50:24;2.58;;;1.33;;
48651;SDS011;34442;52.362;-1.302;2023-07-31T12:52:50;3.53;;;1.73;;
48651;SDS011;34442;52.362;-1.302;2023-07-31T12:55:17;2.42;;;1.45;;
48651;SDS011;34442;52.362;-1.302;2023-07-31T12:57:43;3.20;;;1.50;;
48651;SDS011;34442;52.362;-1.302;2023-07-31T13:00:09;3.95;;;1.63;;
48651;SDS011;34442;52.362;-1.302;2023-07-31T13:02:34;3.78;;;1.65;;
48651;SDS011;34442;52.362;-1.302;2023-07-31T13:05:02;4.03;;;1.73;;
48651;SDS011;34442;52.362;-1.302;2023-07-31T13:07:28;3.30;;;1.73;;
48651;SDS011;34442;52.362;-1.302;2023-07-31T13:09:54;3.90;;;1.73;;
48651;SDS011;34442;52.362;-1.302;2023-07-31T13:12:19;3.10;;;1.80;;
48651;SDS011;34442;52.362;-1.302;2023-07-31T13:14:45;4.15;;;2.00;;
48651;SDS011;34442;52.362;-1.302;2023-07-31T13:17:10;4.30;;;1.80;;
48651;SDS011;34442;52.362;-1.302;2023-07-31T13:19:35;4.28;;;1.92;;
48651;SDS011;34442;52.362;-1.302;2023-07-31T13:22:01;4.10;;;2.00;;
48651;SDS011;34442;52.362;-1.302;2023-07-31T13:24:26;3.83;;;1.70;;
48651;SDS011;34442;52.362;-1.302;2023-07-31T13:26:51;3.78;;;1.63;;
48651;SDS011;34442;52.362;-1.302;2023-07-31T13:29:17;4.18;;;2.00;;
48651;SDS011;34442;52.362;-1.302;2023-07-31T13:31:42;4.03;;;1.83;;
48651;SDS011;34442;52.362;-1.302;2023-07-31T13:34:07;3.38;;;1.58;;
48651;SDS011;34442;52.362;-1.302;2023-07-31T13:36:33;3.67;;;1.95;;
48651;SDS011;34442;52.362;-1.302;2023-07-31T13:38:59;3.80;;;1.75;;
48651;SDS011;34442;52.362;-1.302;2023-07-31T13:41:25;3.42;;;1.60;;
48651;SDS011;34442;52.362;-1.302;2023-07-31T13:43:50;4.03;;;2.20;;
48651;SDS011;34442;52.362;-1.302;2023-07-31T13:46:16;3.88;;;1.90;;
48651;SDS011;34442;52.362;-1.302;2023-07-31T13:48:41;4.47;;;1.80;;
48651;SDS011;34442;52.362;-1.302;2023-07-31T13:51:06;3.83;;;1.60;;
48651;SDS011;34442;52.362;-1.302;2023-07-31T13:53:32;4.15;;;1.73;;
48651;SDS011;34442;52.362;-1.302;2023-07-31T13:55:57;4.45;;;1.83;;
48651;SDS011;34442;52.362;-1.302;2023-07-31T13:58:23;3.97;;;2.00;;
48651;SDS011;34442;52.362;-1.302;2023-07-31T14:00:48;4.95;;;1.88;;
48651;SDS011;34442;52.362;-1.302;2023-07-31T14:03:14;4.28;;;2.25;;
48651;SDS011;34442;52.362;-1.302;2023-07-31T14:05:39;5.22;;;2.17;;
48651;SDS011;34442;52.362;-1.302;2023-07-31T14:08:04;4.43;;;2.00;;
48651;SDS011;34442;52.362;-1.302;2023-07-31T14:10:30;4.15;;;1.90;;
48651;SDS011;34442;52.362;-1.302;2023-07-31T14:12:55;3.60;;;2.13;;
48651;SDS011;34442;52.362;-1.302;2023-07-31T14:15:21;4.35;;;2.08;;
48651;SDS011;34442;52.362;-1.302;2023-07-31T14:17:46;4.80;;;2.20;;
48651;SDS011;34442;52.362;-1.302;2023-07-31T14:20:11;4.10;;;2.30;;
48651;SDS011;34442;52.362;-1.302;2023-07-31T14:22:37;5.85;;;1.80;;
48651;SDS011;34442;52.362;-1.302;2023-07-31T14:25:03;5.10;;;2.00;;
48651;SDS011;34442;52.362;-1.302;2023-07-31T14:27:28;5.72;;;2.35;;
48651;SDS011;34442;52.362;-1.302;2023-07-31T14:29:54;4.00;;;2.25;;
48651;SDS011;34442;52.362;-1.302;2023-07-31T14:32:20;4.70;;;2.05;;
48651;SDS011;34442;52.362;-1.302;2023-07-31T14:34:46;4.35;;;2.10;;
48651;SDS011;34442;52.362;-1.302;2023-07-31T14:37:11;5.18;;;2.35;;
48651;SDS011;34442;52.362;-1.302;2023-07-31T14:39:36;4.65;;;2.00;;
48651;SDS011;34442;52.362;-1.302;2023-07-31T14:42:02;3.60;;;1.70;;
48651;SDS011;34442;52.362;-1.302;2023-07-31T14:44:27;3.70;;;1.80;;
48651;SDS011;34442;52.362;-1.302;2023-07-31T14:46:53;5.15;;;2.10;;
48651;SDS011;34442;52.362;-1.302;2023-07-31T14:49:18;3.03;;;1.60;;